Terminal Aerodrome Forecast
Issued by NWS

Home | Current Version | Previous Version | Graphics & Text | Print | Product List | Glossary On
Versions: 1 2 3 4 5 6 7 8 9 10 11 12 13 14 15
695
FTUS43 KOAX 100520
TAFCDR
TAF
KCDR 100520Z 1006/1106 27012KT P6SM SKC
     FM101500 31012KT P6SM SKC=

USA.gov is the U.S. government's official web portal to all federal, state and local government web resources and services.